sensor_id;sensor_type;location;lat;lon;timestamp;pressure;altitude;pressure_sealevel;temperature;humidity
21290;BME280;10804;48.988;2.408;2023-03-16T00:00:42;100914.59;;;11.51;64.43
21290;BME280;10804;48.988;2.408;2023-03-16T00:03:11;100903.28;;;11.52;64.46
21290;BME280;10804;48.988;2.408;2023-03-16T00:05:44;100895.50;;;11.49;64.45
21290;BME280;10804;48.988;2.408;2023-03-16T00:08:12;100899.88;;;11.49;64.43
21290;BME280;10804;48.988;2.408;2023-03-16T00:10:40;100893.78;;;11.48;64.49
21290;BME280;10804;48.988;2.408;2023-03-16T00:13:12;100903.38;;;11.48;64.63
21290;BME280;10804;48.988;2.408;2023-03-16T00:15:40;100901.72;;;11.46;64.57
21290;BME280;10804;48.988;2.408;2023-03-16T00:18:07;100892.13;;;11.44;64.58
21290;BME280;10804;48.988;2.408;2023-03-16T00:20:36;100890.38;;;11.47;64.40
21290;BME280;10804;48.988;2.408;2023-03-16T00:23:03;100879.09;;;11.44;64.60
21290;BME280;10804;48.988;2.408;2023-03-16T00:25:31;100890.44;;;11.43;64.63
21290;BME280;10804;48.988;2.408;2023-03-16T00:27:59;100884.41;;;11.42;64.37
21290;BME280;10804;48.988;2.408;2023-03-16T00:30:28;100893.94;;;11.43;64.54
21290;BME280;10804;48.988;2.408;2023-03-16T00:32:56;100890.53;;;11.41;64.34
21290;BME280;10804;48.988;2.408;2023-03-16T00:35:23;100899.16;;;11.43;64.52
21290;BME280;10804;48.988;2.408;2023-03-16T00:37:52;100893.13;;;11.41;64.42
21290;BME280;10804;48.988;2.408;2023-03-16T00:40:24;100883.59;;;11.40;64.42
21290;BME280;10804;48.988;2.408;2023-03-16T00:42:51;100881.88;;;11.39;64.49
21290;BME280;10804;48.988;2.408;2023-03-16T00:45:20;100876.66;;;11.39;64.60
21290;BME280;10804;48.988;2.408;2023-03-16T00:47:48;100868.88;;;11.36;64.53
21290;BME280;10804;48.988;2.408;2023-03-16T00:50:19;100859.31;;;11.36;64.56
21290;BME280;10804;48.988;2.408;2023-03-16T00:52:47;100859.31;;;11.36;64.60
21290;BME280;10804;48.988;2.408;2023-03-16T00:55:16;100864.56;;;11.35;64.49
21290;BME280;10804;48.988;2.408;2023-03-16T00:57:44;100871.59;;;11.33;64.60
21290;BME280;10804;48.988;2.408;2023-03-16T01:00:12;100889.91;;;11.31;64.53
21290;BME280;10804;48.988;2.408;2023-03-16T01:02:43;100882.16;;;11.28;64.62
21290;BME280;10804;48.988;2.408;2023-03-16T01:05:11;100883.00;;;11.29;64.70
21290;BME280;10804;48.988;2.408;2023-03-16T01:07:39;100877.88;;;11.26;64.67
21290;BME280;10804;48.988;2.408;2023-03-16T01:10:07;100883.09;;;11.26;64.62
21290;BME280;10804;48.988;2.408;2023-03-16T01:12:36;100875.25;;;11.26;64.56
21290;BME280;10804;48.988;2.408;2023-03-16T01:15:05;100866.63;;;11.24;64.64
21290;BME280;10804;48.988;2.408;2023-03-16T01:17:33;100863.16;;;11.22;64.68
21290;BME280;10804;48.988;2.408;2023-03-16T01:20:00;100852.72;;;11.22;64.66
21290;BME280;10804;48.988;2.408;2023-03-16T01:22:33;100846.72;;;11.18;64.57
21290;BME280;10804;48.988;2.408;2023-03-16T01:25:01;100835.34;;;11.21;64.65
21290;BME280;10804;48.988;2.408;2023-03-16T01:27:28;100831.91;;;11.20;64.76
21290;BME280;10804;48.988;2.408;2023-03-16T01:29:57;100824.97;;;11.19;64.68
21290;BME280;10804;48.988;2.408;2023-03-16T01:32:26;100815.47;;;11.17;64.68
21290;BME280;10804;48.988;2.408;2023-03-16T01:34:53;100809.44;;;11.15;64.71
21290;BME280;10804;48.988;2.408;2023-03-16T01:37:22;100812.03;;;11.15;64.70
21290;BME280;10804;48.988;2.408;2023-03-16T01:39:57;100806.25;;;11.04;64.69
21290;BME280;10804;48.988;2.408;2023-03-16T01:42:25;100824.31;;;11.11;64.73
21290;BME280;10804;48.988;2.408;2023-03-16T01:44:57;100826.97;;;11.10;64.72
21290;BME280;10804;48.988;2.408;2023-03-16T01:47:32;100826.97;;;11.10;64.68
21290;BME280;10804;48.988;2.408;2023-03-16T01:50:04;100821.81;;;11.07;64.78
21290;BME280;10804;48.988;2.408;2023-03-16T01:52:36;100805.34;;;11.05;64.77
21290;BME280;10804;48.988;2.408;2023-03-16T01:55:06;100800.19;;;11.03;64.99
21290;BME280;10804;48.988;2.408;2023-03-16T01:57:38;100794.09;;;11.03;64.90
21290;BME280;10804;48.988;2.408;2023-03-16T02:00:10;100800.19;;;11.03;64.91
21290;BME280;10804;48.988;2.408;2023-03-16T02:03:03;100795.94;;;10.98;64.98
21290;BME280;10804;48.988;2.408;2023-03-16T02:05:49;100785.50;;;10.98;64.94
21290;BME280;10804;48.988;2.408;2023-03-16T02:08:20;100786.44;;;10.95;64.81
21290;BME280;10804;48.988;2.408;2023-03-16T02:10:48;100780.38;;;10.95;64.88
21290;BME280;10804;48.988;2.408;2023-03-16T02:13:20;100788.22;;;10.95;64.91
21290;BME280;10804;48.988;2.408;2023-03-16T02:15:48;100780.53;;;10.89;65.07
21290;BME280;10804;48.988;2.408;2023-03-16T02:18:21;100785.69;;;10.92;65.02
21290;BME280;10804;48.988;2.408;2023-03-16T02:20:52;100770.09;;;10.89;65.16
21290;BME280;10804;48.988;2.408;2023-03-16T02:23:24;100772.69;;;10.90;65.02
21290;BME280;10804;48.988;2.408;2023-03-16T02:25:55;100778.81;;;10.89;64.98
21290;BME280;10804;48.988;2.408;2023-03-16T02:28:33;100778.84;;;10.88;64.95
21290;BME280;10804;48.988;2.408;2023-03-16T02:31:03;100770.22;;;10.84;64.99
21290;BME280;10804;48.988;2.408;2023-03-16T02:33:32;100769.34;;;10.84;65.01
21290;BME280;10804;48.988;2.408;2023-03-16T02:36:00;100761.53;;;10.84;64.95
21290;BME280;10804;48.988;2.408;2023-03-16T02:38:29;100768.53;;;10.83;65.13
21290;BME280;10804;48.988;2.408;2023-03-16T02:40:58;100763.34;;;10.82;65.02
21290;BME280;10804;48.988;2.408;2023-03-16T02:43:32;100765.13;;;10.80;65.08
21290;BME280;10804;48.988;2.408;2023-03-16T02:46:10;100761.72;;;10.78;65.01
21290;BME280;10804;48.988;2.408;2023-03-16T02:48:42;100753.00;;;10.79;65.10
21290;BME280;10804;48.988;2.408;2023-03-16T02:51:11;100751.31;;;10.76;65.08
21290;BME280;10804;48.988;2.408;2023-03-16T02:53:39;100758.25;;;10.76;65.13
21290;BME280;10804;48.988;2.408;2023-03-16T02:56:07;100747.84;;;10.76;65.05
21290;BME280;10804;48.988;2.408;2023-03-16T02:58:36;100738.38;;;10.73;65.11
21290;BME280;10804;48.988;2.408;2023-03-16T03:01:10;100730.56;;;10.72;65.16
21290;BME280;10804;48.988;2.408;2023-03-16T03:03:38;100726.25;;;10.71;65.09
21290;BME280;10804;48.988;2.408;2023-03-16T03:06:06;100716.75;;;10.68;65.09
21290;BME280;10804;48.988;2.408;2023-03-16T03:08:36;100719.34;;;10.68;65.05
21290;BME280;10804;48.988;2.408;2023-03-16T03:11:06;100725.44;;;10.69;65.00
21290;BME280;10804;48.988;2.408;2023-03-16T03:13:35;100735.91;;;10.67;65.08
21290;BME280;10804;48.988;2.408;2023-03-16T03:16:05;100731.66;;;10.63;65.07
21290;BME280;10804;48.988;2.408;2023-03-16T03:18:34;100718.69;;;10.62;65.14
21290;BME280;10804;48.988;2.408;2023-03-16T03:21:01;100725.59;;;10.63;65.11
21290;BME280;10804;48.988;2.408;2023-03-16T03:23:29;100722.16;;;10.61;65.14
21290;BME280;10804;48.988;2.408;2023-03-16T03:25:57;100724.81;;;10.59;65.17
21290;BME280;10804;48.988;2.408;2023-03-16T03:28:25;100723.03;;;10.60;65.25
21290;BME280;10804;48.988;2.408;2023-03-16T03:30:52;100714.53;;;10.53;65.19
21290;BME280;10804;48.988;2.408;2023-03-16T03:33:20;100716.19;;;10.57;65.26
21290;BME280;10804;48.988;2.408;2023-03-16T03:35:54;100724.06;;;10.54;65.06
21290;BME280;10804;48.988;2.408;2023-03-16T03:38:23;100717.97;;;10.55;65.23
21290;BME280;10804;48.988;2.408;2023-03-16T03:40:51;100724.09;;;10.53;65.32
21290;BME280;10804;48.988;2.408;2023-03-16T03:43:19;100712.88;;;10.49;65.19
21290;BME280;10804;48.988;2.408;2023-03-16T03:45:48;100718.97;;;10.50;65.39
21290;BME280;10804;48.988;2.408;2023-03-16T03:48:16;100707.69;;;10.49;65.24
21290;BME280;10804;48.988;2.408;2023-03-16T03:50:45;100705.13;;;10.48;65.28
21290;BME280;10804;48.988;2.408;2023-03-16T03:53:34;100706.94;;;10.46;65.36
21290;BME280;10804;48.988;2.408;2023-03-16T03:56:22;100706.03;;;10.47;65.16
21290;BME280;10804;48.988;2.408;2023-03-16T03:58:50;100703.47;;;10.44;65.08
21290;BME280;10804;48.988;2.408;2023-03-16T04:01:49;100701.72;;;10.46;65.25
21290;BME280;10804;48.988;2.408;2023-03-16T04:04:19;100700.94;;;10.42;65.30
21290;BME280;10804;48.988;2.408;2023-03-16T04:06:47;100704.47;;;10.40;65.21
21290;BME280;10804;48.988;2.408;2023-03-16T04:09:17;100698.38;;;10.39;65.26
21290;BME280;10804;48.988;2.408;2023-03-16T04:11:45;100682.78;;;10.38;65.39
21290;BME280;10804;48.988;2.408;2023-03-16T04:14:12;100692.34;;;10.39;65.30
21290;BME280;10804;48.988;2.408;2023-03-16T04:16:40;100691.50;;;10.37;65.12
21290;BME280;10804;48.988;2.408;2023-03-16T04:19:11;100677.66;;;10.35;65.26
21290;BME280;10804;48.988;2.408;2023-03-16T04:21:38;100675.94;;;10.34;65.22
21290;BME280;10804;48.988;2.408;2023-03-16T04:24:06;100670.81;;;10.31;65.08
21290;BME280;10804;48.988;2.408;2023-03-16T04:26:36;100663.88;;;10.30;65.28
21290;BME280;10804;48.988;2.408;2023-03-16T04:29:04;100664.75;;;10.30;65.32
21290;BME280;10804;48.988;2.408;2023-03-16T04:31:33;100666.47;;;10.30;65.43
21290;BME280;10804;48.988;2.408;2023-03-16T04:34:01;100661.34;;;10.27;65.17
21290;BME280;10804;48.988;2.408;2023-03-16T04:36:29;100669.28;;;10.22;65.22
21290;BME280;10804;48.988;2.408;2023-03-16T04:38:58;100664.06;;;10.24;65.48
21290;BME280;10804;48.988;2.408;2023-03-16T04:41:25;100663.16;;;10.25;65.30
21290;BME280;10804;48.988;2.408;2023-03-16T04:44:07;100657.94;;;10.25;65.35
21290;BME280;10804;48.988;2.408;2023-03-16T04:46:35;100651.03;;;10.24;65.28
21290;BME280;10804;48.988;2.408;2023-03-16T04:49:06;100651.06;;;10.22;65.28
21290;BME280;10804;48.988;2.408;2023-03-16T04:51:38;100651.06;;;10.22;65.35
21290;BME280;10804;48.988;2.408;2023-03-16T04:54:10;100653.69;;;10.21;65.17
21290;BME280;10804;48.988;2.408;2023-03-16T04:56:40;100653.75;;;10.19;65.36
21290;BME280;10804;48.988;2.408;2023-03-16T04:59:29;100649.38;;;10.20;65.50
21290;BME280;10804;48.988;2.408;2023-03-16T05:02:04;100645.06;;;10.19;65.20
21290;BME280;10804;48.988;2.408;2023-03-16T05:04:32;100640.75;;;10.18;65.27
21290;BME280;10804;48.988;2.408;2023-03-16T05:07:00;100646.84;;;10.17;65.17
21290;BME280;10804;48.988;2.408;2023-03-16T05:09:32;100639.94;;;10.16;65.47
21290;BME280;10804;48.988;2.408;2023-03-16T05:12:00;100641.69;;;10.15;65.46
21290;BME280;10804;48.988;2.408;2023-03-16T05:14:28;100622.63;;;10.13;65.18
21290;BME280;10804;48.988;2.408;2023-03-16T05:17:19;100636.50;;;10.14;65.26
21290;BME280;10804;48.988;2.408;2023-03-16T05:19:47;100620.84;;;10.14;65.36
21290;BME280;10804;48.988;2.408;2023-03-16T05:22:16;100626.13;;;10.12;65.14
21290;BME280;10804;48.988;2.408;2023-03-16T05:25:02;100627.97;;;10.09;65.36
21290;BME280;10804;48.988;2.408;2023-03-16T05:27:31;100619.38;;;10.04;65.57
21290;BME280;10804;48.988;2.408;2023-03-16T05:30:00;100631.38;;;10.11;65.53
21290;BME280;10804;48.988;2.408;2023-03-16T05:32:30;100626.25;;;10.08;65.48
21290;BME280;10804;48.988;2.408;2023-03-16T05:34:57;100629.72;;;10.07;65.52
21290;BME280;10804;48.988;2.408;2023-03-16T05:37:25;100628.00;;;10.06;65.69
21290;BME280;10804;48.988;2.408;2023-03-16T05:39:52;100634.09;;;10.06;65.37
21290;BME280;10804;48.988;2.408;2023-03-16T05:42:19;100648.84;;;10.06;65.31
21290;BME280;10804;48.988;2.408;2023-03-16T05:44:52;100639.34;;;10.05;65.49
21290;BME280;10804;48.988;2.408;2023-03-16T05:47:34;100650.63;;;10.05;65.15
21290;BME280;10804;48.988;2.408;2023-03-16T05:50:02;100650.66;;;10.04;65.15
21290;BME280;10804;48.988;2.408;2023-03-16T05:52:34;100637.69;;;10.01;65.18
21290;BME280;10804;48.988;2.408;2023-03-16T05:55:10;100648.97;;;10.00;65.44
21290;BME280;10804;48.988;2.408;2023-03-16T05:57:37;100642.06;;;9.99;65.48
21290;BME280;10804;48.988;2.408;2023-03-16T06:00:07;100641.16;;;10.00;65.23
21290;BME280;10804;48.988;2.408;2023-03-16T06:02:47;100636.94;;;9.96;65.41
21290;BME280;10804;48.988;2.408;2023-03-16T06:05:17;100633.44;;;9.97;65.34
21290;BME280;10804;48.988;2.408;2023-03-16T06:07:46;100636.94;;;9.96;65.43
21290;BME280;10804;48.988;2.408;2023-03-16T06:10:15;100637.81;;;9.96;65.17
21290;BME280;10804;48.988;2.408;2023-03-16T06:12:44;100635.28;;;9.92;65.19
21290;BME280;10804;48.988;2.408;2023-03-16T06:15:11;100642.22;;;9.93;65.18
21290;BME280;10804;48.988;2.408;2023-03-16T06:17:39;100633.50;;;9.94;65.23
21290;BME280;10804;48.988;2.408;2023-03-16T06:20:11;100636.19;;;9.91;65.51
21290;BME280;10804;48.988;2.408;2023-03-16T06:22:42;100639.63;;;9.93;65.64
21290;BME280;10804;48.988;2.408;2023-03-16T06:25:12;100638.78;;;9.91;65.49
21290;BME280;10804;48.988;2.408;2023-03-16T06:27:42;100643.19;;;9.89;65.69
21290;BME280;10804;48.988;2.408;2023-03-16T06:30:16;100636.25;;;9.88;65.55
21290;BME280;10804;48.988;2.408;2023-03-16T06:32:43;100631.94;;;9.87;65.70
21290;BME280;10804;48.988;2.408;2023-03-16T06:35:13;100626.75;;;9.87;65.17
21290;BME280;10804;48.988;2.408;2023-03-16T06:37:46;100631.03;;;9.89;65.20
21290;BME280;10804;48.988;2.408;2023-03-16T06:40:26;100631.94;;;9.87;65.39
21290;BME280;10804;48.988;2.408;2023-03-16T06:42:54;100628.53;;;9.85;65.58
21290;BME280;10804;48.988;2.408;2023-03-16T06:45:22;100622.47;;;9.84;65.26
21290;BME280;10804;48.988;2.408;2023-03-16T06:47:51;100619.81;;;9.86;65.25
21290;BME280;10804;48.988;2.408;2023-03-16T06:50:19;100622.34;;;9.89;65.20
21290;BME280;10804;48.988;2.408;2023-03-16T06:52:47;100619.88;;;9.83;65.31
21290;BME280;10804;48.988;2.408;2023-03-16T06:55:14;100629.38;;;9.85;65.49
21290;BME280;10804;48.988;2.408;2023-03-16T06:57:45;100632.88;;;9.84;65.08
21290;BME280;10804;48.988;2.408;2023-03-16T07:00:14;100619.81;;;9.86;65.24
21290;BME280;10804;48.988;2.408;2023-03-16T07:02:42;100627.56;;;9.87;65.30
21290;BME280;10804;48.988;2.408;2023-03-16T07:05:11;100621.53;;;9.87;65.27
21290;BME280;10804;48.988;2.408;2023-03-16T07:07:41;100611.94;;;9.87;65.48
21290;BME280;10804;48.988;2.408;2023-03-16T07:10:10;100613.72;;;9.87;65.15
21290;BME280;10804;48.988;2.408;2023-03-16T07:12:39;100615.41;;;9.89;65.25
21290;BME280;10804;48.988;2.408;2023-03-16T07:15:07;100606.72;;;9.89;65.57
21290;BME280;10804;48.988;2.408;2023-03-16T07:17:35;100616.25;;;9.88;64.96
21290;BME280;10804;48.988;2.408;2023-03-16T07:20:05;100623.25;;;9.88;65.50
21290;BME280;10804;48.988;2.408;2023-03-16T07:22:35;100624.03;;;9.90;65.13
21290;BME280;10804;48.988;2.408;2023-03-16T07:25:07;100605.81;;;9.90;65.47
21290;BME280;10804;48.988;2.408;2023-03-16T07:27:40;100607.53;;;9.91;65.42
21290;BME280;10804;48.988;2.408;2023-03-16T07:30:10;100602.28;;;9.92;65.38
21290;BME280;10804;48.988;2.408;2023-03-16T07:32:39;100595.72;;;9.78;63.39
21290;BME280;10804;48.988;2.408;2023-03-16T07:35:08;100596.97;;;9.62;60.98
21290;BME280;10804;48.988;2.408;2023-03-16T07:37:36;100593.75;;;9.51;61.19
21290;BME280;10804;48.988;2.408;2023-03-16T07:40:07;100594.75;;;9.47;60.57
21290;BME280;10804;48.988;2.408;2023-03-16T07:42:35;100598.28;;;9.43;59.63
21290;BME280;10804;48.988;2.408;2023-03-16T07:45:08;100598.22;;;9.46;59.36
21290;BME280;10804;48.988;2.408;2023-03-16T07:47:37;100590.38;;;9.47;59.41
21290;BME280;10804;48.988;2.408;2023-03-16T07:50:27;100592.88;;;9.52;59.22
21290;BME280;10804;48.988;2.408;2023-03-16T07:52:55;100593.69;;;9.54;59.22
21290;BME280;10804;48.988;2.408;2023-03-16T07:55:24;100598.84;;;9.57;59.40
21290;BME280;10804;48.988;2.408;2023-03-16T07:57:52;100600.56;;;9.56;58.00
21290;BME280;10804;48.988;2.408;2023-03-16T08:00:27;100610.06;;;9.59;58.59
21290;BME280;10804;48.988;2.408;2023-03-16T08:02:54;100597.94;;;9.58;57.99
21290;BME280;10804;48.988;2.408;2023-03-16T08:05:22;100606.63;;;9.57;56.78
21290;BME280;10804;48.988;2.408;2023-03-16T08:07:57;100603.03;;;9.62;57.08
21290;BME280;10804;48.988;2.408;2023-03-16T08:10:28;100606.50;;;9.63;57.67
21290;BME280;10804;48.988;2.408;2023-03-16T08:13:10;100605.53;;;9.65;57.16
21290;BME280;10804;48.988;2.408;2023-03-16T08:15:45;100613.28;;;9.70;56.87
21290;BME280;10804;48.988;2.408;2023-03-16T08:18:19;100602.88;;;9.70;56.63
21290;BME280;10804;48.988;2.408;2023-03-16T08:20:49;100608.94;;;9.69;56.93
21290;BME280;10804;48.988;2.408;2023-03-16T08:23:17;100611.47;;;9.73;56.25
21290;BME280;10804;48.988;2.408;2023-03-16T08:25:50;100600.97;;;9.75;56.31
21290;BME280;10804;48.988;2.408;2023-03-16T08:28:18;100600.94;;;9.78;56.29
21290;BME280;10804;48.988;2.408;2023-03-16T08:30:47;100605.97;;;9.84;56.14
21290;BME280;10804;48.988;2.408;2023-03-16T08:33:43;100605.91;;;9.87;56.66
21290;BME280;10804;48.988;2.408;2023-03-16T08:36:14;100603.97;;;9.95;56.77
21290;BME280;10804;48.988;2.408;2023-03-16T08:38:46;100608.09;;;10.03;56.57
21290;BME280;10804;48.988;2.408;2023-03-16T08:41:16;100602.03;;;10.04;56.05
21290;BME280;10804;48.988;2.408;2023-03-16T08:43:46;100600.22;;;10.06;56.24
21290;BME280;10804;48.988;2.408;2023-03-16T08:46:13;100595.66;;;10.16;56.45
21290;BME280;10804;48.988;2.408;2023-03-16T08:48:49;100596.50;;;10.15;56.79
21290;BME280;10804;48.988;2.408;2023-03-16T08:51:17;100595.66;;;10.14;56.91
21290;BME280;10804;48.988;2.408;2023-03-16T08:53:45;100592.03;;;10.20;55.79
21290;BME280;10804;48.988;2.408;2023-03-16T08:56:12;100592.84;;;10.22;55.33
21290;BME280;10804;48.988;2.408;2023-03-16T08:58:41;100582.53;;;10.19;56.27
21290;BME280;10804;48.988;2.408;2023-03-16T09:01:11;100585.63;;;10.33;55.66
21290;BME280;10804;48.988;2.408;2023-03-16T09:03:39;100592.38;;;10.40;55.98
21290;BME280;10804;48.988;2.408;2023-03-16T09:06:09;100588.63;;;10.50;55.69
21290;BME280;10804;48.988;2.408;2023-03-16T09:08:39;100587.66;;;10.54;55.88
21290;BME280;10804;48.988;2.408;2023-03-16T09:11:08;100589.22;;;10.59;56.05
21290;BME280;10804;48.988;2.408;2023-03-16T09:13:38;100588.78;;;10.74;55.63
21290;BME280;10804;48.988;2.408;2023-03-16T09:16:08;100591.25;;;10.79;55.86
21290;BME280;10804;48.988;2.408;2023-03-16T09:18:37;100582.25;;;10.89;55.47
21290;BME280;10804;48.988;2.408;2023-03-16T09:21:06;100572.69;;;10.89;56.12
21290;BME280;10804;48.988;2.408;2023-03-16T09:23:34;100572.56;;;10.94;55.59
21290;BME280;10804;48.988;2.408;2023-03-16T09:26:04;100564.66;;;10.95;55.83
21290;BME280;10804;48.988;2.408;2023-03-16T09:28:33;100571.75;;;10.92;54.40
21290;BME280;10804;48.988;2.408;2023-03-16T09:31:01;100565.63;;;10.93;55.74
21290;BME280;10804;48.988;2.408;2023-03-16T09:33:30;100568.09;;;10.97;56.35
21290;BME280;10804;48.988;2.408;2023-03-16T09:35:58;100567.38;;;10.92;57.00
21290;BME280;10804;48.988;2.408;2023-03-16T09:38:26;100569.25;;;10.87;57.64
21290;BME280;10804;48.988;2.408;2023-03-16T09:40:59;100568.31;;;10.90;57.91
21290;BME280;10804;48.988;2.408;2023-03-16T09:43:54;100563.06;;;10.91;58.26
21290;BME280;10804;48.988;2.408;2023-03-16T09:46:26;100556.94;;;10.92;58.49
21290;BME280;10804;48.988;2.408;2023-03-16T09:48:56;100562.81;;;10.99;58.58
21290;BME280;10804;48.988;2.408;2023-03-16T09:51:34;100564.44;;;11.03;58.74
21290;BME280;10804;48.988;2.408;2023-03-16T09:54:07;100556.47;;;11.07;58.77
21290;BME280;10804;48.988;2.408;2023-03-16T09:56:42;100564.16;;;11.12;58.86
21290;BME280;10804;48.988;2.408;2023-03-16T09:59:13;100555.41;;;11.14;58.98
21290;BME280;10804;48.988;2.408;2023-03-16T10:01:57;100550.03;;;11.19;58.99
21290;BME280;10804;48.988;2.408;2023-03-16T10:04:38;100548.19;;;11.22;58.92
21290;BME280;10804;48.988;2.408;2023-03-16T10:07:18;100548.03;;;11.27;59.14
21290;BME280;10804;48.988;2.408;2023-03-16T10:09:53;100540.94;;;11.32;59.14
21290;BME280;10804;48.988;2.408;2023-03-16T10:12:25;100552.13;;;11.35;59.04
21290;BME280;10804;48.988;2.408;2023-03-16T10:14:59;100541.53;;;11.40;59.22
21290;BME280;10804;48.988;2.408;2023-03-16T10:17:36;100549.22;;;11.44;59.27
21290;BME280;10804;48.988;2.408;2023-03-16T10:20:09;100542.22;;;11.44;59.09
21290;BME280;10804;48.988;2.408;2023-03-16T10:22:41;100548.19;;;11.48;59.23
21290;BME280;10804;48.988;2.408;2023-03-16T10:25:15;100548.88;;;11.54;59.35
21290;BME280;10804;48.988;2.408;2023-03-16T10:27:45;100551.41;;;11.57;59.25
21290;BME280;10804;48.988;2.408;2023-03-16T10:30:22;100545.19;;;11.62;59.45
21290;BME280;10804;48.988;2.408;2023-03-16T10:32:51;100536.47;;;11.63;59.36
21290;BME280;10804;48.988;2.408;2023-03-16T10:35:42;100542.31;;;11.69;59.38
21290;BME280;10804;48.988;2.408;2023-03-16T10:38:26;100524.00;;;11.70;59.38
21290;BME280;10804;48.988;2.408;2023-03-16T10:40:53;100527.31;;;11.75;59.59
21290;BME280;10804;48.988;2.408;2023-03-16T10:43:23;100523.69;;;11.79;59.63
21290;BME280;10804;48.988;2.408;2023-03-16T10:45:50;100528.78;;;11.82;60.04
21290;BME280;10804;48.988;2.408;2023-03-16T10:48:20;100530.41;;;11.86;59.86
21290;BME280;10804;48.988;2.408;2023-03-16T10:50:51;100519.91;;;11.88;60.21
21290;BME280;10804;48.988;2.408;2023-03-16T10:53:22;100519.75;;;11.92;60.49
21290;BME280;10804;48.988;2.408;2023-03-16T10:55:56;100512.59;;;11.97;60.67
21290;BME280;10804;48.988;2.408;2023-03-16T10:58:25;100508.97;;;12.01;60.60
21290;BME280;10804;48.988;2.408;2023-03-16T11:00:55;100502.72;;;12.05;60.75
21290;BME280;10804;48.988;2.408;2023-03-16T11:03:25;100497.41;;;12.08;60.58
21290;BME280;10804;48.988;2.408;2023-03-16T11:06:00;100494.56;;;12.14;60.66
21290;BME280;10804;48.988;2.408;2023-03-16T11:08:31;100489.19;;;12.19;60.76
21290;BME280;10804;48.988;2.408;2023-03-16T11:11:07;100482.88;;;12.24;60.91
21290;BME280;10804;48.988;2.408;2023-03-16T11:13:37;100486.09;;;12.31;60.75
21290;BME280;10804;48.988;2.408;2023-03-16T11:16:20;100486.78;;;12.36;60.88
21290;BME280;10804;48.988;2.408;2023-03-16T11:18:49;100480.44;;;12.43;60.58
21290;BME280;10804;48.988;2.408;2023-03-16T11:21:24;100465.47;;;12.46;60.84
21290;BME280;10804;48.988;2.408;2023-03-16T11:23:55;100470.50;;;12.52;60.59
21290;BME280;10804;48.988;2.408;2023-03-16T11:26:27;100469.34;;;12.59;60.67
21290;BME280;10804;48.988;2.408;2023-03-16T11:29:01;100465.66;;;12.65;60.57
21290;BME280;10804;48.988;2.408;2023-03-16T11:31:39;100452.19;;;12.74;60.48
21290;BME280;10804;48.988;2.408;2023-03-16T11:34:14;100437.91;;;12.82;60.51
21290;BME280;10804;48.988;2.408;2023-03-16T11:36:47;100442.06;;;12.88;60.52
21290;BME280;10804;48.988;2.408;2023-03-16T11:39:26;100440.84;;;12.96;60.12
21290;BME280;10804;48.988;2.408;2023-03-16T11:42:03;100437.06;;;13.03;60.17
21290;BME280;10804;48.988;2.408;2023-03-16T11:44:43;100436.69;;;13.12;60.25
21290;BME280;10804;48.988;2.408;2023-03-16T11:47:30;100430.31;;;13.19;59.92
21290;BME280;10804;48.988;2.408;2023-03-16T11:50:05;100434.28;;;13.29;59.68
21290;BME280;10804;48.988;2.408;2023-03-16T11:52:45;100440.81;;;13.39;60.01
21290;BME280;10804;48.988;2.408;2023-03-16T11:55:24;100430.81;;;13.49;59.84
21290;BME280;10804;48.988;2.408;2023-03-16T11:58:01;100420.72;;;13.60;59.59
21290;BME280;10804;48.988;2.408;2023-03-16T12:00:36;100414.16;;;13.70;59.68
21290;BME280;10804;48.988;2.408;2023-03-16T12:03:31;100410.25;;;13.80;59.32
21290;BME280;10804;48.988;2.408;2023-03-16T12:06:11;100406.22;;;13.91;59.31
21290;BME280;10804;48.988;2.408;2023-03-16T12:09:02;100391.84;;;14.00;59.43
21290;BME280;10804;48.988;2.408;2023-03-16T12:11:38;100398.97;;;14.16;58.39
21290;BME280;10804;48.988;2.408;2023-03-16T12:14:13;100394.91;;;14.29;58.71
21290;BME280;10804;48.988;2.408;2023-03-16T12:16:46;100385.66;;;14.39;57.90
21290;BME280;10804;48.988;2.408;2023-03-16T12:19:19;100382.47;;;14.51;57.92
21290;BME280;10804;48.988;2.408;2023-03-16T12:21:54;100382.81;;;14.62;57.62
21290;BME280;10804;48.988;2.408;2023-03-16T12:24:28;100366.63;;;14.71;57.09
21290;BME280;10804;48.988;2.408;2023-03-16T12:26:58;100367.91;;;14.81;57.29
21290;BME280;10804;48.988;2.408;2023-03-16T12:29:28;100361.25;;;14.91;57.02
21290;BME280;10804;48.988;2.408;2023-03-16T12:32:07;100370.44;;;15.00;57.26
21290;BME280;10804;48.988;2.408;2023-03-16T12:34:39;100367.28;;;15.10;56.77
21290;BME280;10804;48.988;2.408;2023-03-16T12:37:21;100354.50;;;15.21;57.29
21290;BME280;10804;48.988;2.408;2023-03-16T12:40:01;100358.38;;;15.31;56.90
21290;BME280;10804;48.988;2.408;2023-03-16T12:45:33;100332.00;;;15.50;56.32
21290;BME280;10804;48.988;2.408;2023-03-16T12:48:10;100328.81;;;15.60;56.48
21290;BME280;10804;48.988;2.408;2023-03-16T12:50:48;100323.06;;;15.69;56.60
21290;BME280;10804;48.988;2.408;2023-03-16T12:53:27;100312.00;;;15.79;56.46
21290;BME280;10804;48.988;2.408;2023-03-16T12:56:04;100303.59;;;15.88;56.23
21290;BME280;10804;48.988;2.408;2023-03-16T12:58:33;100302.28;;;15.97;55.27
21290;BME280;10804;48.988;2.408;2023-03-16T13:01:01;100296.69;;;16.03;55.30
21290;BME280;10804;48.988;2.408;2023-03-16T13:03:28;100289.13;;;16.12;55.19
21290;BME280;10804;48.988;2.408;2023-03-16T13:05:57;100290.41;;;16.21;54.94
21290;BME280;10804;48.988;2.408;2023-03-16T13:08:26;100286.50;;;16.28;54.94
21290;BME280;10804;48.988;2.408;2023-03-16T13:11:03;100277.19;;;16.38;55.63
21290;BME280;10804;48.988;2.408;2023-03-16T13:13:32;100277.78;;;16.43;54.47
21290;BME280;10804;48.988;2.408;2023-03-16T13:16:05;100279.88;;;16.52;55.07
21290;BME280;10804;48.988;2.408;2023-03-16T13:18:37;100267.13;;;16.60;54.36